Time;durP1;ratioP1;P1;durP2;ratioP2;P2;SDS_P1;SDS_P2;PMS_P1;PMS_P2;Temp;Humidity;BMP_temperature;BMP_pressure;BME280_temperature;BME280_humidity;BME280_pressure;Samples;Min_cycle;Max_cycle;Signal;HPM_P1;HPM_P2
2021/04/28 00:01:41;;;;;;;27.50;25.85;;;8.90;62.70;;;;;;5095566;28;20356;-76
2021/04/28 00:04:08;;;;;;;27.23;25.40;;;8.90;62.80;;;;;;5095287;28;20560;-75
2021/04/28 00:06:35;;;;;;;26.55;24.95;;;8.90;62.70;;;;;;5094831;28;20358;-76
2021/04/28 00:09:01;;;;;;;28.02;26.15;;;8.80;63.00;;;;;;5095326;28;20195;-76
2021/04/28 00:11:28;;;;;;;28.52;26.65;;;8.80;63.00;;;;;;5095565;28;20697;-76
2021/04/28 00:13:55;;;;;;;27.48;25.77;;;8.70;63.30;;;;;;5094656;28;20275;-76
2021/04/28 00:16:22;;;;;;;27.70;25.75;;;8.70;63.20;;;;;;5094544;28;20206;-76
2021/04/28 00:18:49;;;;;;;27.45;25.65;;;8.60;64.20;;;;;;5094928;28;20703;-76
2021/04/28 00:21:15;;;;;;;27.98;26.17;;;8.60;63.70;;;;;;5095160;28;20696;-76
2021/04/28 00:23:42;;;;;;;28.17;26.40;;;8.60;63.50;;;;;;5095216;28;20206;-76
2021/04/28 00:26:09;;;;;;;28.05;26.15;;;8.60;63.30;;;;;;5093981;28;20241;-76
2021/04/28 00:28:36;;;;;;;28.02;26.33;;;8.60;63.40;;;;;;5095063;28;20659;-76
2021/04/28 00:31:03;;;;;;;27.92;26.10;;;8.60;63.40;;;;;;5094722;28;20244;-76
2021/04/28 00:33:29;;;;;;;27.65;25.92;;;8.40;64.10;;;;;;5094819;28;20286;-76
2021/04/28 00:35:56;;;;;;;27.27;25.55;;;8.50;64.00;;;;;;5094363;28;20195;-76
2021/04/28 00:38:22;;;;;;;27.50;25.80;;;8.40;64.20;;;;;;5094658;28;20222;-75
2021/04/28 00:40:49;;;;;;;28.70;26.52;;;8.40;64.90;;;;;;5094667;28;20219;-76
2021/04/28 00:43:16;;;;;;;28.35;26.52;;;8.30;64.60;;;;;;5094887;28;20209;-76
2021/04/28 00:45:44;;;;;;;29.55;27.25;;;8.30;64.60;;;;;;5094129;28;20297;-76
2021/04/28 00:48:12;;;;;;;28.08;26.08;;;8.30;65.00;;;;;;5094470;28;20248;-76
2021/04/28 00:50:42;;;;;;;27.95;26.10;;;8.20;65.60;;;;;;5094629;28;20226;-77
2021/04/28 00:53:10;;;;;;;28.10;26.10;;;8.20;65.50;;;;;;5094565;28;20295;-76
2021/04/28 00:55:37;;;;;;;28.17;26.23;;;8.10;65.20;;;;;;5094031;28;20632;-76
2021/04/28 00:58:05;;;;;;;28.65;26.77;;;8.10;65.20;;;;;;5094323;28;20227;-76
2021/04/28 01:00:33;;;;;;;28.92;26.55;;;8.00;65.40;;;;;;5093820;28;20311;-77
2021/04/28 01:03:00;;;;;;;28.27;26.42;;;8.00;65.60;;;;;;5094388;28;20194;-76
2021/04/28 01:05:27;;;;;;;28.00;26.20;;;8.00;65.60;;;;;;5094006;28;20280;-75
2021/04/28 01:07:53;;;;;;;28.73;26.90;;;8.00;65.50;;;;;;5094142;28;20230;-76
2021/04/28 01:10:22;;;;;;;28.33;26.15;;;8.10;65.30;;;;;;5094130;28;20754;-76
2021/04/28 01:12:49;;;;;;;29.35;27.35;;;8.10;65.10;;;;;;5093864;28;20279;-76
2021/04/28 01:15:18;;;;;;;28.75;26.88;;;8.00;65.30;;;;;;5094187;28;20284;-76
2021/04/28 01:17:45;;;;;;;29.02;26.98;;;8.10;65.20;;;;;;5093599;28;20601;-75
2021/04/28 01:20:16;;;;;;;27.90;26.17;;;8.00;65.30;;;;;;5094019;28;20227;-76
2021/04/28 01:22:45;;;;;;;29.38;27.58;;;8.00;65.40;;;;;;5093901;28;20299;-76
2021/04/28 01:25:14;;;;;;;29.20;27.20;;;8.00;65.20;;;;;;5093452;28;20310;-76
2021/04/28 01:27:44;;;;;;;28.50;26.60;;;8.00;65.20;;;;;;5093310;28;20197;-76
2021/04/28 01:30:13;;;;;;;28.60;26.65;;;8.00;65.30;;;;;;5093844;28;20230;-76
2021/04/28 01:32:44;;;;;;;29.13;27.33;;;8.00;65.30;;;;;;5093947;28;20204;-76
2021/04/28 01:35:12;;;;;;;29.77;27.65;;;8.00;65.50;;;;;;5093632;28;20627;-76
2021/04/28 01:37:38;;;;;;;28.73;26.92;;;8.00;65.40;;;;;;5093005;28;20574;-76
2021/04/28 01:40:06;;;;;;;28.50;26.70;;;7.90;65.60;;;;;;5093570;28;20244;-76
2021/04/28 01:42:33;;;;;;;29.77;27.88;;;7.90;65.80;;;;;;5093588;28;20205;-76
2021/04/28 01:45:01;;;;;;;30.73;27.92;;;7.80;72.20;;;;;;5093503;28;20201;-76
2021/04/28 01:47:28;;;;;;;28.52;26.80;;;7.80;68.30;;;;;;5092800;28;20696;-76
2021/04/28 01:49:54;;;;;;;30.13;28.10;;;7.80;66.90;;;;;;5093481;28;20198;-76
2021/04/28 01:52:21;;;;;;;28.90;27.20;;;7.90;66.20;;;;;;5093331;28;20199;-76
2021/04/28 01:54:49;;;;;;;28.98;27.00;;;7.90;66.00;;;;;;5093358;28;20780;-75
2021/04/28 01:57:17;;;;;;;29.05;27.25;;;8.00;65.70;;;;;;5092610;28;20198;-76
2021/04/28 01:59:44;;;;;;;28.60;26.90;;;7.90;65.70;;;;;;5093270;28;20195;-76
2021/04/28 02:02:11;;;;;;;28.92;26.98;;;7.90;65.50;;;;;;5093066;28;20355;-75
2021/04/28 02:04:38;;;;;;;29.75;27.75;;;7.80;66.00;;;;;;5093415;28;20196;-76
2021/04/28 02:07:05;;;;;;;28.73;26.73;;;7.80;66.20;;;;;;5092446;28;20201;-77
2021/04/28 02:09:31;;;;;;;28.95;26.88;;;7.80;65.80;;;;;;5092994;28;20283;-76
2021/04/28 02:11:58;;;;;;;29.85;27.73;;;7.80;65.80;;;;;;5092560;28;20295;-76
2021/04/28 02:14:26;;;;;;;29.65;27.75;;;7.80;65.90;;;;;;5092758;28;20199;-76
2021/04/28 02:16:53;;;;;;;28.60;26.40;;;7.80;66.10;;;;;;5092449;28;20199;-76
2021/04/28 02:19:20;;;;;;;29.88;27.48;;;7.80;66.20;;;;;;5092833;28;20693;-76
2021/04/28 02:21:49;;;;;;;28.33;26.55;;;7.70;66.50;;;;;;5092792;28;20273;-76
2021/04/28 02:24:16;;;;;;;29.75;27.85;;;7.60;66.80;;;;;;5092751;28;20570;-77
2021/04/28 02:26:43;;;;;;;30.15;28.05;;;7.60;67.00;;;;;;5091600;28;20283;-76
2021/04/28 02:29:10;;;;;;;29.63;27.63;;;7.50;66.90;;;;;;5092752;28;20622;-77
2021/04/28 02:31:38;;;;;;;29.33;27.23;;;7.50;67.00;;;;;;5092890;28;20230;-76
2021/04/28 02:34:06;;;;;;;29.90;27.50;;;7.40;67.30;;;;;;5092897;28;20510;-75
2021/04/28 02:36:33;;;;;;;30.27;28.27;;;7.40;67.40;;;;;;5091945;28;20222;-76
2021/04/28 02:39:02;;;;;;;27.60;25.90;;;7.40;67.40;;;;;;5092524;28;20677;-76
2021/04/28 02:41:29;;;;;;;30.10;28.20;;;7.40;67.40;;;;;;5092457;28;20273;-76
2021/04/28 02:43:57;;;;;;;28.50;26.70;;;7.40;67.60;;;;;;5092690;28;20282;-76
2021/04/28 02:46:26;;;;;;;28.80;26.95;;;7.40;67.70;;;;;;5091913;28;20207;-76
2021/04/28 02:48:54;;;;;;;31.17;28.50;;;7.30;68.10;;;;;;5092322;28;20201;-76
2021/04/28 02:51:20;;;;;;;30.55;28.58;;;7.30;68.20;;;;;;5092270;28;20218;-76
2021/04/28 02:53:48;;;;;;;29.20;27.35;;;7.30;68.00;;;;;;5092360;28;20222;-76
2021/04/28 02:56:15;;;;;;;30.05;27.67;;;7.30;67.90;;;;;;5091829;28;20332;-76
2021/04/28 02:58:42;;;;;;;29.77;27.77;;;7.30;67.80;;;;;;5092303;28;20226;-76
2021/04/28 03:01:09;;;;;;;31.48;28.52;;;7.30;67.80;;;;;;5092202;28;20726;-75
2021/04/28 03:03:40;;;;;;;30.10;28.30;;;7.30;67.80;;;;;;5092250;28;20287;-76
2021/04/28 03:06:10;;;;;;;31.75;29.45;;;7.20;68.00;;;;;;5091688;28;20207;-76
2021/04/28 03:08:37;;;;;;;29.13;27.05;;;7.20;68.00;;;;;;5092325;28;20677;-76
2021/04/28 03:11:04;;;;;;;43.78;41.05;;;7.30;67.80;;;;;;5092288;28;20258;-76
2021/04/28 03:13:31;;;;;;;31.30;28.45;;;7.30;67.70;;;;;;5092225;28;20354;-76
2021/04/28 03:15:57;;;;;;;30.02;27.77;;;7.20;67.90;;;;;;5091543;28;20204;-75
2021/04/28 03:18:24;;;;;;;34.15;31.25;;;7.20;67.90;;;;;;5092009;28;20220;-76
2021/04/28 03:20:53;;;;;;;30.45;28.33;;;7.20;67.90;;;;;;5092072;28;20219;-76
2021/04/28 03:23:20;;;;;;;31.92;29.73;;;7.20;67.90;;;;;;5091934;28;20200;-75
2021/04/28 03:25:47;;;;;;;36.13;33.75;;;7.30;67.80;;;;;;5095146;28;20201;-76
2021/04/28 03:28:14;;;;;;;32.13;29.80;;;7.20;68.40;;;;;;5096103;28;20204;-76
2021/04/28 03:30:40;;;;;;;32.67;30.38;;;7.20;68.50;;;;;;5095830;28;20219;-76
2021/04/28 03:33:07;;;;;;;30.75;28.75;;;7.10;68.50;;;;;;5096099;28;20281;-76
2021/04/28 03:35:33;;;;;;;30.67;28.58;;;7.10;68.60;;;;;;5095477;28;20287;-75
2021/04/28 03:38:00;;;;;;;30.45;28.20;;;7.10;68.80;;;;;;5095872;28;20222;-75
2021/04/28 03:40:27;;;;;;;32.05;29.88;;;7.00;69.10;;;;;;5095878;28;20361;-76
2021/04/28 03:42:53;;;;;;;33.90;31.63;;;6.90;69.40;;;;;;5095787;28;20661;-76
2021/04/28 03:45:20;;;;;;;40.80;37.70;;;6.90;69.50;;;;;;5095777;28;20195;-76
2021/04/28 03:47:46;;;;;;;31.77;29.40;;;6.90;69.30;;;;;;5095203;28;20211;-76
2021/04/28 03:50:13;;;;;;;31.90;29.58;;;6.90;69.60;;;;;;5095587;28;20305;-76
2021/04/28 03:52:40;;;;;;;32.05;29.48;;;6.90;69.70;;;;;;5095712;28;20196;-76
2021/04/28 03:55:08;;;;;;;32.95;30.60;;;6.90;70.10;;;;;;5095829;28;20200;-76
2021/04/28 03:57:35;;;;;;;32.70;30.10;;;6.90;69.90;;;;;;5094952;28;20546;-76
2021/04/28 04:00:03;;;;;;;31.45;29.00;;;6.90;69.70;;;;;;5095570;28;20282;-76
2021/04/28 04:02:30;;;;;;;33.72;30.83;;;6.90;69.90;;;;;;5095354;28;20201;-76
2021/04/28 04:04:57;;;;;;;32.35;29.92;;;6.80;70.40;;;;;;5095330;28;20199;-76
2021/04/28 04:07:24;;;;;;;32.40;30.20;;;6.80;70.70;;;;;;5095374;28;20196;-76
2021/04/28 04:09:50;;;;;;;40.45;37.75;;;6.70;70.90;;;;;;5095128;28;20248;-77
2021/04/28 04:12:16;;;;;;;33.05;30.45;;;6.80;70.70;;;;;;5095232;28;20199;-76
2021/04/28 04:14:44;;;;;;;34.53;31.70;;;6.80;70.70;;;;;;5095325;28;20276;-76
2021/04/28 04:17:10;;;;;;;34.75;32.15;;;6.80;70.70;;;;;;5094738;28;20287;-76
2021/04/28 04:19:37;;;;;;;33.67;31.27;;;6.90;70.60;;;;;;5095181;28;20219;-75
2021/04/28 04:22:03;;;;;;;31.15;28.90;;;6.90;70.40;;;;;;5095033;28;20257;-76
2021/04/28 04:24:29;;;;;;;32.80;30.60;;;7.00;70.10;;;;;;5094977;28;20207;-76
2021/04/28 04:26:56;;;;;;;31.80;29.55;;;7.00;70.10;;;;;;5093934;28;20256;-75
2021/04/28 04:29:23;;;;;;;40.67;38.15;;;7.00;70.20;;;;;;5094985;28;20278;-75
2021/04/28 04:31:50;;;;;;;33.20;30.33;;;7.00;70.10;;;;;;5094510;28;20250;-76
2021/04/28 04:34:17;;;;;;;32.55;30.10;;;7.10;69.80;;;;;;5094871;28;20278;-75
2021/04/28 04:36:43;;;;;;;31.73;29.30;;;7.10;69.90;;;;;;5093577;28;20210;-75
2021/04/28 04:39:10;;;;;;;32.10;29.33;;;7.10;70.00;;;;;;5094641;28;20566;-75
2021/04/28 04:41:36;;;;;;;32.15;29.80;;;7.20;69.60;;;;;;5094905;28;20215;-76
2021/04/28 04:44:03;;;;;;;33.42;30.67;;;7.30;69.50;;;;;;5094683;28;20195;-75
2021/04/28 04:46:29;;;;;;;40.15;37.20;;;7.20;69.70;;;;;;5094208;28;20231;-76
2021/04/28 04:48:57;;;;;;;31.73;29.48;;;7.20;70.00;;;;;;5094604;28;20565;-76
2021/04/28 04:51:23;;;;;;;32.60;30.20;;;7.30;70.00;;;;;;5094364;28;20581;-76
2021/04/28 04:53:50;;;;;;;36.05;33.00;;;7.40;69.60;;;;;;5094372;28;20194;-77
2021/04/28 04:56:16;;;;;;;31.42;29.10;;;7.40;69.90;;;;;;5094059;28;20658;-76
2021/04/28 04:58:43;;;;;;;37.83;34.72;;;7.40;69.90;;;;;;5094302;28;20252;-76
2021/04/28 05:01:09;;;;;;;33.80;31.25;;;7.60;69.20;;;;;;5094260;28;20217;-76
2021/04/28 05:03:35;;;;;;;36.88;33.85;;;7.70;68.90;;;;;;5094359;28;20203;-76
2021/04/28 05:06:03;;;;;;;34.90;31.85;;;7.80;68.50;;;;;;5093529;28;20193;-75
2021/04/28 05:08:29;;;;;;;34.78;31.85;;;7.90;68.10;;;;;;5094098;28;20291;-77
2021/04/28 05:10:56;;;;;;;36.65;33.78;;;8.00;67.80;;;;;;5094057;28;20265;-76
2021/04/28 05:13:22;;;;;;;33.63;31.00;;;8.00;67.70;;;;;;5094169;28;20255;-76
2021/04/28 05:15:49;;;;;;;33.75;31.35;;;8.00;67.60;;;;;;5093427;28;20195;-75
2021/04/28 05:18:15;;;;;;;33.03;30.60;;;8.10;67.50;;;;;;5093928;28;20264;-76
2021/04/28 05:20:42;;;;;;;36.28;33.47;;;8.20;67.20;;;;;;5093841;28;20215;-76
2021/04/28 05:23:09;;;;;;;37.35;34.38;;;8.30;66.80;;;;;;5093809;28;20200;-76
2021/04/28 05:25:36;;;;;;;33.45;30.85;;;8.30;66.50;;;;;;5092981;28;20674;-76
2021/04/28 05:28:02;;;;;;;34.22;31.30;;;8.40;66.40;;;;;;5094104;28;20333;-76
2021/04/28 05:30:29;;;;;;;33.47;30.88;;;8.50;65.90;;;;;;5093515;28;20317;-76
2021/04/28 05:32:55;;;;;;;33.50;30.75;;;8.60;65.70;;;;;;5093630;28;20291;-76
2021/04/28 05:35:22;;;;;;;33.92;31.42;;;8.60;65.80;;;;;;5093443;28;20225;-76
2021/04/28 05:37:48;;;;;;;34.22;31.73;;;8.80;65.50;;;;;;5093113;28;20210;-76
2021/04/28 05:40:17;;;;;;;35.88;33.33;;;9.00;65.20;;;;;;5093582;28;20223;-76
2021/04/28 05:42:44;;;;;;;33.05;30.75;;;9.00;64.70;;;;;;5093497;28;20286;-76
2021/04/28 05:45:12;;;;;;;35.88;33.00;;;9.10;64.70;;;;;;5093510;28;20240;-76
2021/04/28 05:47:39;;;;;;;36.85;34.05;;;9.20;64.40;;;;;;5092788;28;20297;-76
2021/04/28 05:50:09;;;;;;;36.20;33.53;;;9.40;64.10;;;;;;5093186;28;20300;-76
2021/04/28 05:52:35;;;;;;;35.33;32.55;;;9.50;63.80;;;;;;5093277;28;20221;-77
2021/04/28 05:55:02;;;;;;;34.20;30.80;;;9.70;63.20;;;;;;5093260;28;20225;-75
2021/04/28 05:57:31;;;;;;;33.55;30.90;;;9.90;62.80;;;;;;5092649;28;20714;-76
2021/04/28 05:59:58;;;;;;;33.13;30.70;;;10.10;62.50;;;;;;5093141;28;20294;-75
2021/04/28 06:02:24;;;;;;;37.90;35.20;;;10.10;62.20;;;;;;5093163;28;20199;-77
2021/04/28 06:04:50;;;;;;;35.25;32.38;;;10.20;62.20;;;;;;5093045;28;20286;-76
2021/04/28 06:07:17;;;;;;;34.97;31.73;;;10.30;62.20;;;;;;5092478;28;20199;-76
2021/04/28 06:09:43;;;;;;;34.53;31.88;;;10.50;61.80;;;;;;5093200;28;20277;-77
2021/04/28 06:12:10;;;;;;;36.85;33.85;;;10.60;61.60;;;;;;5092895;28;20263;-76
2021/04/28 06:14:37;;;;;;;35.90;32.80;;;10.80;61.00;;;;;;5092883;28;20282;-77
2021/04/28 06:17:06;;;;;;;36.22;33.67;;;10.90;60.60;;;;;;5092270;28;20283;-76
2021/04/28 06:19:32;;;;;;;33.40;31.02;;;11.00;60.00;;;;;;5092909;28;20215;-76
2021/04/28 06:21:59;;;;;;;36.25;33.35;;;11.10;60.20;;;;;;5092821;28;20301;-76
2021/04/28 06:24:25;;;;;;;36.03;33.33;;;11.30;59.90;;;;;;5092840;28;20198;-75
2021/04/28 06:26:52;;;;;;;35.45;32.65;;;11.40;59.60;;;;;;5091642;28;20575;-77
2021/04/28 06:29:21;;;;;;;35.88;33.45;;;11.60;59.20;;;;;;5093001;28;20256;-77
2021/04/28 06:31:48;;;;;;;37.13;34.40;;;11.70;59.00;;;;;;5092449;28;20392;-77
2021/04/28 06:34:14;;;;;;;36.30;33.33;;;11.90;59.40;;;;;;5093101;28;20233;-78
2021/04/28 06:36:41;;;;;;;39.90;35.90;;;12.00;61.10;;;;;;5092136;28;20492;-77
2021/04/28 06:39:07;;;;;;;40.57;36.17;;;12.10;58.80;;;;;;5092717;28;20572;-77
2021/04/28 06:41:34;;;;;;;37.20;33.80;;;12.20;58.10;;;;;;5092848;28;20552;-77
2021/04/28 06:44:00;;;;;;;38.83;35.10;;;12.30;57.60;;;;;;5092881;28;20535;-78
2021/04/28 06:46:26;;;;;;;37.87;34.63;;;12.50;57.40;;;;;;5092428;28;20548;-76
2021/04/28 06:48:53;;;;;;;37.13;33.63;;;12.60;56.90;;;;;;5093348;28;20544;-75
2021/04/28 06:51:20;;;;;;;36.30;33.33;;;12.80;56.30;;;;;;5092839;28;21015;-76
2021/04/28 06:53:46;;;;;;;35.47;32.83;;;12.90;55.90;;;;;;5092560;28;20461;-76
2021/04/28 06:56:12;;;;;;;36.90;34.07;;;13.00;55.50;;;;;;5091998;28;20540;-76
2021/04/28 06:58:39;;;;;;;36.97;34.00;;;13.10;55.40;;;;;;5091679;28;20477;-76
2021/04/28 07:01:05;;;;;;;41.47;38.67;;;13.20;54.80;;;;;;5092388;28;20469;-77
2021/04/28 07:03:32;;;;;;;37.87;34.73;;;13.40;54.70;;;;;;5092293;28;20460;-76
2021/04/28 07:05:59;;;;;;;37.70;34.13;;;13.50;54.60;;;;;;5091807;28;20538;-76
2021/04/28 07:08:26;;;;;;;35.70;33.10;;;13.70;54.10;;;;;;5092402;28;20576;-77
2021/04/28 07:10:52;;;;;;;37.47;34.47;;;13.70;53.90;;;;;;5092166;28;20472;-76
2021/04/28 07:13:19;;;;;;;37.53;34.53;;;13.90;53.40;;;;;;5092151;28;20536;-77
2021/04/28 07:15:45;;;;;;;38.60;35.40;;;13.90;53.00;;;;;;5091784;28;20567;-77
2021/04/28 07:18:11;;;;;;;38.00;35.03;;;14.00;52.90;;;;;;5092367;28;20545;-77
2021/04/28 07:20:38;;;;;;;38.43;35.33;;;14.10;52.50;;;;;;5092157;28;20559;-76
2021/04/28 07:23:05;;;;;;;39.53;36.13;;;14.30;52.20;;;;;;5092623;28;20556;-76
2021/04/28 07:25:31;;;;;;;36.03;33.23;;;14.30;52.30;;;;;;5090940;28;20453;-76
2021/04/28 07:27:58;;;;;;;37.13;34.40;;;14.40;52.30;;;;;;5092361;28;20881;-76
2021/04/28 07:30:25;;;;;;;41.13;37.60;;;14.50;51.80;;;;;;5091841;28;20978;-76
2021/04/28 07:32:51;;;;;;;38.90;35.70;;;14.70;51.60;;;;;;5093903;28;20891;-77
2021/04/28 07:35:21;;;;;;;38.47;35.57;;;14.80;51.30;;;;;;5092830;28;20537;-77
2021/04/28 07:37:48;;;;;;;38.87;35.80;;;14.80;51.10;;;;;;5092417;28;20453;-76
2021/04/28 07:40:17;;;;;;;38.10;34.73;;;15.00;50.70;;;;;;5092768;28;20477;-78
2021/04/28 07:42:43;;;;;;;39.97;36.57;;;15.10;50.70;;;;;;5092753;28;20461;-77
2021/04/28 07:45:11;;;;;;;37.73;34.53;;;15.30;50.50;;;;;;5092293;28;20449;-77
2021/04/28 07:47:37;;;;;;;38.03;35.23;;;15.30;50.50;;;;;;5091887;28;20461;-77
2021/04/28 07:50:05;;;;;;;39.90;36.90;;;15.50;50.40;;;;;;5092568;28;20954;-76
2021/04/28 07:52:32;;;;;;;40.47;37.17;;;15.60;50.40;;;;;;5092574;28;20449;-77
2021/04/28 07:54:58;;;;;;;38.47;35.57;;;15.70;50.10;;;;;;5092181;28;20464;-77
2021/04/28 07:57:26;;;;;;;40.00;36.60;;;15.70;50.10;;;;;;5091914;28;20536;-77
2021/04/28 07:59:52;;;;;;;39.63;36.60;;;15.80;50.30;;;;;;5093084;28;20559;-77
2021/04/28 08:02:19;;;;;;;40.10;37.03;;;15.80;50.30;;;;;;5092377;28;20792;-77
2021/04/28 08:04:45;;;;;;;37.30;34.20;;;16.00;50.30;;;;;;5092733;28;20452;-77
2021/04/28 08:07:11;;;;;;;41.67;38.23;;;16.10;50.30;;;;;;5091348;28;20946;-77
2021/04/28 08:09:38;;;;;;;39.60;36.43;;;16.10;50.50;;;;;;5091605;28;20456;-78
2021/04/28 08:12:05;;;;;;;38.07;34.97;;;16.20;50.60;;;;;;5094319;28;20475;-78
2021/04/28 08:14:33;;;;;;;37.97;34.50;;;16.20;50.40;;;;;;5095529;28;20532;-78
2021/04/28 08:17:00;;;;;;;36.83;34.03;;;16.40;50.50;;;;;;5095044;28;20488;-77
2021/04/28 08:19:27;;;;;;;40.33;37.23;;;16.50;50.00;;;;;;5095324;28;20560;-78
2021/04/28 08:21:54;;;;;;;39.57;36.50;;;16.60;49.70;;;;;;5095652;28;20493;-78
2021/04/28 08:24:21;;;;;;;39.20;36.30;;;16.80;49.30;;;;;;5095030;28;20540;-76
2021/04/28 08:26:48;;;;;;;38.23;35.23;;;16.80;49.40;;;;;;5094026;28;20552;-77
2021/04/28 08:29:14;;;;;;;39.27;35.87;;;16.90;49.40;;;;;;5095216;28;20476;-76
2021/04/28 08:31:45;;;;;;;38.37;35.13;;;17.00;49.40;;;;;;5094844;28;20473;-76
2021/04/28 08:34:12;;;;;;;37.70;34.90;;;17.10;48.70;;;;;;5094988;28;20481;-76
2021/04/28 08:36:38;;;;;;;37.90;34.83;;;17.00;48.60;;;;;;5094405;28;20549;-77
2021/04/28 08:39:07;;;;;;;37.70;34.53;;;17.10;48.60;;;;;;5094847;28;21251;-76
2021/04/28 08:41:34;;;;;;;38.30;35.20;;;17.20;48.60;;;;;;5095082;28;20469;-77
2021/04/28 08:44:06;;;;;;;37.97;34.87;;;17.40;48.00;;;;;;5094813;28;20787;-77
2021/04/28 08:46:33;;;;;;;40.77;37.03;;;17.50;47.90;;;;;;5094654;28;20791;-77
2021/04/28 08:49:00;;;;;;;41.57;38.37;;;17.50;47.60;;;;;;5094854;28;20455;-77
2021/04/28 08:51:27;;;;;;;37.53;34.67;;;17.60;47.10;;;;;;5094658;28;20473;-76
2021/04/28 08:53:53;;;;;;;40.00;36.70;;;17.70;47.10;;;;;;5094669;28;20491;-76
2021/04/28 08:56:22;;;;;;;41.13;37.00;;;17.80;47.00;;;;;;5094178;28;20831;-76
2021/04/28 08:58:51;;;;;;;38.60;35.30;;;17.90;47.40;;;;;;5094498;28;20479;-76
2021/04/28 09:01:28;;;;;;;40.87;36.80;;;18.10;47.00;;;;;;5094535;28;20515;-76
2021/04/28 09:03:57;;;;;;;41.40;37.13;;;18.20;46.60;;;;;;5094495;28;20445;-76
2021/04/28 09:06:29;;;;;;;39.80;36.30;;;18.10;46.10;;;;;;5093721;28;20552;-77
2021/04/28 09:08:56;;;;;;;41.23;38.03;;;18.20;46.60;;;;;;5094562;28;20539;-77
2021/04/28 09:11:34;;;;;;;38.10;35.17;;;18.10;46.50;;;;;;5094219;28;20560;-77
2021/04/28 09:14:12;;;;;;;38.20;35.20;;;18.20;46.60;;;;;;5094376;28;20462;-76
2021/04/28 09:16:39;;;;;;;37.70;34.50;;;18.20;46.10;;;;;;5093647;28;20951;-77
2021/04/28 09:19:07;;;;;;;40.87;37.57;;;18.30;45.30;;;;;;5094179;28;20571;-78
2021/04/28 09:21:52;;;;;;;36.23;33.20;;;18.30;44.70;;;;;;5093697;28;20476;-77
2021/04/28 09:24:21;;;;;;;38.20;34.97;;;18.70;44.70;;;;;;5093961;28;20449;-77
2021/04/28 09:26:48;;;;;;;37.00;33.90;;;18.70;44.30;;;;;;5092685;28;20587;-80
2021/04/28 09:29:18;;;;;;;55.57;39.70;;;18.80;44.60;;;;;;5093893;28;20487;-77
2021/04/28 09:32:03;;;;;;;37.33;34.53;;;18.80;44.80;;;;;;5093557;28;20556;-77
2021/04/28 09:34:31;;;;;;;37.20;34.23;;;19.00;44.10;;;;;;5093813;28;20456;-77
2021/04/28 09:37:04;;;;;;;38.53;35.33;;;19.20;42.80;;;;;;5093128;28;20619;-78
2021/04/28 09:39:30;;;;;;;36.90;33.90;;;19.20;43.20;;;;;;5093563;28;20473;-78
2021/04/28 09:41:57;;;;;;;37.23;34.23;;;19.20;43.20;;;;;;5093572;28;20513;-77
2021/04/28 09:44:30;;;;;;;37.50;34.37;;;19.40;43.30;;;;;;5093560;28;20939;-77
2021/04/28 09:47:01;;;;;;;37.30;34.57;;;19.60;42.50;;;;;;5092934;28;20457;-77
2021/04/28 09:49:41;;;;;;;37.87;34.83;;;19.80;41.50;;;;;;5093557;28;20934;-77
2021/04/28 09:52:09;;;;;;;36.47;33.77;;;19.80;41.70;;;;;;5093426;28;20481;-77
2021/04/28 09:54:36;;;;;;;36.57;33.67;;;19.70;41.80;;;;;;5093656;28;20540;-77
2021/04/28 09:57:03;;;;;;;37.43;34.63;;;19.70;41.70;;;;;;5093126;28;20449;-77
2021/04/28 09:59:43;;;;;;;36.67;33.57;;;19.80;41.30;;;;;;5093048;28;20534;-77
2021/04/28 10:02:13;;;;;;;37.33;34.63;;;19.90;40.70;;;;;;5093135;28;20565;-78
2021/04/28 10:04:39;;;;;;;35.30;32.83;;;20.10;40.30;;;;;;5093281;28;20457;-78
2021/04/28 10:07:06;;;;;;;34.93;32.43;;;20.20;40.20;;;;;;5092775;28;20884;-77
2021/04/28 10:09:35;;;;;;;36.53;33.67;;;20.20;39.40;;;;;;5093090;28;20442;-77
2021/04/28 10:12:04;;;;;;;35.23;32.77;;;20.20;39.00;;;;;;5093793;28;20469;-78
2021/04/28 10:14:31;;;;;;;36.90;34.13;;;20.20;37.90;;;;;;5094928;28;20455;-78
2021/04/28 10:17:00;;;;;;;40.13;36.50;;;20.00;38.40;;;;;;5094393;28;20467;-78
2021/04/28 10:19:27;;;;;;;37.23;34.43;;;19.80;40.70;;;;;;5093588;28;20484;-78
2021/04/28 10:21:59;;;;;;;38.97;35.23;;;19.70;39.60;;;;;;5093373;28;20511;-78
2021/04/28 10:24:26;;;;;;;38.43;35.50;;;19.80;40.60;;;;;;5093669;28;20913;-78
2021/04/28 10:26:54;;;;;;;38.63;35.53;;;19.80;40.30;;;;;;5092164;28;20465;-78
2021/04/28 10:29:21;;;;;;;40.07;36.70;;;19.70;40.10;;;;;;5093346;28;20445;-78
2021/04/28 10:31:49;;;;;;;38.10;35.30;;;19.80;39.70;;;;;;5092961;28;20473;-77
2021/04/28 10:34:25;;;;;;;38.07;35.33;;;19.80;39.30;;;;;;5092704;28;20445;-78
2021/04/28 10:36:54;;;;;;;38.10;35.00;;;19.50;39.40;;;;;;5092790;28;20452;-78
2021/04/28 10:39:22;;;;;;;47.23;38.77;;;19.50;39.80;;;;;;5092925;28;20465;-77
2021/04/28 10:41:48;;;;;;;38.37;35.20;;;19.50;39.60;;;;;;5092819;28;20618;-78
2021/04/28 10:44:42;;;;;;;41.57;34.90;;;19.70;39.00;;;;;;5093067;28;20449;-78
2021/04/28 10:47:22;;;;;;;39.20;34.93;;;19.70;38.80;;;;;;5092103;28;20556;-78
2021/04/28 10:50:13;;;;;;;36.83;34.07;;;19.70;39.30;;;;;;5092501;28;20481;-75
2021/04/28 10:52:49;;;;;;;36.43;33.30;;;19.60;38.90;;;;;;5092583;28;20453;-77
2021/04/28 10:55:43;;;;;;;37.40;34.50;;;19.80;38.60;;;;;;5092687;28;20506;-78
2021/04/28 10:58:52;;;;;;;36.43;33.63;;;20.00;38.60;;;;;;5092392;28;20456;-76
2021/04/28 11:01:38;;;;;;;35.40;32.90;;;20.40;38.20;;;;;;5092424;28;20511;-76
2021/04/28 11:04:12;;;;;;;35.60;33.20;;;20.60;36.70;;;;;;5092323;28;20457;-76
2021/04/28 11:06:44;;;;;;;34.20;31.63;;;20.60;36.30;;;;;;5092129;28;20441;-77
2021/04/28 11:09:15;;;;;;;34.53;32.13;;;20.80;36.30;;;;;;5092293;28;20457;-76
2021/04/28 11:12:00;;;;;;;35.17;32.60;;;21.00;36.20;;;;;;5092452;28;20465;-76
2021/04/28 11:14:35;;;;;;;35.33;32.60;;;21.20;35.60;;;;;;5089108;28;21028;-76
2021/04/28 11:17:04;;;;;;;34.63;32.23;;;21.50;35.40;;;;;;5091815;28;20459;-77
2021/04/28 11:19:33;;;;;;;35.00;32.40;;;21.70;35.10;;;;;;5092055;28;20529;-77
2021/04/28 11:22:23;;;;;;;32.90;30.63;;;22.00;34.80;;;;;;5092142;28;20482;-77
2021/04/28 11:24:55;;;;;;;33.30;31.00;;;22.30;34.50;;;;;;5092347;28;20970;-77
2021/04/28 11:27:41;;;;;;;33.27;30.93;;;22.50;33.80;;;;;;5091080;28;20453;-77
2021/04/28 11:30:37;;;;;;;34.37;31.97;;;22.60;33.50;;;;;;5092098;28;20469;-77
2021/04/28 11:33:14;;;;;;;36.20;33.60;;;22.50;32.60;;;;;;5092075;28;20961;-77
2021/04/28 11:35:42;;;;;;;34.47;31.77;;;22.60;32.90;;;;;;5091557;28;20461;-77
2021/04/28 11:38:12;;;;;;;34.63;32.20;;;22.70;32.60;;;;;;5091843;28;20457;-77
2021/04/28 11:40:49;;;;;;;35.50;33.10;;;22.60;32.40;;;;;;5092007;28;20483;-77
2021/04/28 11:43:18;;;;;;;34.37;32.03;;;22.70;32.10;;;;;;5092017;28;20549;-77
2021/04/28 11:45:45;;;;;;;36.07;33.47;;;22.30;32.40;;;;;;5094257;28;20464;-77
2021/04/28 11:48:22;;;;;;;33.37;31.10;;;22.30;32.40;;;;;;5095993;28;20464;-77
2021/04/28 11:50:57;;;;;;;36.50;34.00;;;22.30;31.90;;;;;;5095762;28;20485;-77
2021/04/28 11:53:25;;;;;;;33.93;31.60;;;22.20;32.30;;;;;;5095962;28;20448;-77
2021/04/28 11:55:51;;;;;;;33.67;31.47;;;22.00;32.70;;;;;;5095321;28;20449;-76
2021/04/28 11:58:19;;;;;;;34.53;32.00;;;22.10;32.40;;;;;;5095776;28;20938;-77
2021/04/28 12:00:47;;;;;;;35.17;32.83;;;21.90;33.10;;;;;;5095777;28;20462;-76
2021/04/28 12:03:13;;;;;;;33.33;31.00;;;22.00;32.50;;;;;;5096589;28;21001;-77
2021/04/28 12:05:40;;;;;;;33.40;30.93;;;22.00;32.30;;;;;;5095915;28;20459;-77
2021/04/28 12:08:07;;;;;;;32.83;30.60;;;22.10;32.00;;;;;;5095983;28;20481;-77
2021/04/28 12:10:34;;;;;;;32.17;30.00;;;22.00;32.10;;;;;;5095373;28;20468;-77
2021/04/28 12:13:01;;;;;;;30.93;28.90;;;21.90;31.50;;;;;;5095776;28;20452;-77
2021/04/28 12:15:27;;;;;;;37.63;35.13;;;22.00;31.00;;;;;;5094842;28;21013;-80
2021/04/28 12:17:54;;;;;;;32.07;29.90;;;22.00;32.40;;;;;;5095488;28;20453;-77
2021/04/28 12:20:23;;;;;;;36.90;34.30;;;22.10;32.50;;;;;;5095180;28;21037;-77
2021/04/28 12:22:50;;;;;;;35.80;33.07;;;21.70;32.30;;;;;;5095379;28;20527;-77
2021/04/28 12:25:23;;;;;;;37.83;35.00;;;21.70;32.90;;;;;;5094545;28;20463;-77
2021/04/28 12:27:51;;;;;;;35.77;33.37;;;22.00;32.60;;;;;;5094731;28;20955;-78
2021/04/28 12:30:20;;;;;;;35.50;32.63;;;22.10;32.60;;;;;;5094946;28;21106;-77
2021/04/28 12:32:49;;;;;;;35.00;32.60;;;22.20;32.40;;;;;;5094774;28;20460;-77
2021/04/28 12:35:18;;;;;;;35.67;33.07;;;22.30;32.80;;;;;;5095001;28;20453;-77
2021/04/28 12:38:00;;;;;;;34.67;32.03;;;22.40;32.50;;;;;;5094655;28;20457;-77